sensor_id;sensor_type;location;lat;lon;timestamp;temperature;humidity
18670;DHT22;9464;44.918;9.670;2023-03-03T00:01:18;8.40;1.00
18670;DHT22;9464;44.918;9.670;2023-03-03T00:03:46;8.30;1.00
18670;DHT22;9464;44.918;9.670;2023-03-03T00:06:15;8.30;1.00
18670;DHT22;9464;44.918;9.670;2023-03-03T00:08:43;8.30;1.00
18670;DHT22;9464;44.918;9.670;2023-03-03T00:11:11;8.30;1.00
18670;DHT22;9464;44.918;9.670;2023-03-03T00:13:46;8.30;1.00
18670;DHT22;9464;44.918;9.670;2023-03-03T00:16:20;8.30;1.00
18670;DHT22;9464;44.918;9.670;2023-03-03T00:18:49;8.30;1.00
18670;DHT22;9464;44.918;9.670;2023-03-03T00:21:29;8.30;1.00
18670;DHT22;9464;44.918;9.670;2023-03-03T00:24:19;8.30;1.00
18670;DHT22;9464;44.918;9.670;2023-03-03T00:26:48;8.30;1.00
18670;DHT22;9464;44.918;9.670;2023-03-03T00:29:29;8.30;1.00
18670;DHT22;9464;44.918;9.670;2023-03-03T00:32:15;8.30;1.00
18670;DHT22;9464;44.918;9.670;2023-03-03T00:34:44;8.40;1.00
18670;DHT22;9464;44.918;9.670;2023-03-03T00:37:24;8.30;1.00
18670;DHT22;9464;44.918;9.670;2023-03-03T00:39:54;8.40;1.00
18670;DHT22;9464;44.918;9.670;2023-03-03T00:42:26;8.30;1.00
18670;DHT22;9464;44.918;9.670;2023-03-03T00:44:58;8.40;1.00
18670;DHT22;9464;44.918;9.670;2023-03-03T00:47:29;8.40;1.00
18670;DHT22;9464;44.918;9.670;2023-03-03T00:50:17;8.40;1.00
18670;DHT22;9464;44.918;9.670;2023-03-03T00:52:59;8.40;1.00
18670;DHT22;9464;44.918;9.670;2023-03-03T00:55:29;8.40;1.00
18670;DHT22;9464;44.918;9.670;2023-03-03T00:57:57;8.40;1.00
18670;DHT22;9464;44.918;9.670;2023-03-03T01:00:25;8.40;1.00
18670;DHT22;9464;44.918;9.670;2023-03-03T01:02:55;8.40;1.00
18670;DHT22;9464;44.918;9.670;2023-03-03T01:05:24;8.40;1.00
18670;DHT22;9464;44.918;9.670;2023-03-03T01:07:52;8.40;1.00
18670;DHT22;9464;44.918;9.670;2023-03-03T01:10:20;8.40;1.00
18670;DHT22;9464;44.918;9.670;2023-03-03T01:12:49;8.40;1.00
18670;DHT22;9464;44.918;9.670;2023-03-03T01:15:17;8.40;1.00
18670;DHT22;9464;44.918;9.670;2023-03-03T01:17:45;8.40;1.00
18670;DHT22;9464;44.918;9.670;2023-03-03T01:20:15;8.40;1.00
18670;DHT22;9464;44.918;9.670;2023-03-03T01:22:43;8.40;1.00
18670;DHT22;9464;44.918;9.670;2023-03-03T01:25:12;8.40;1.00
18670;DHT22;9464;44.918;9.670;2023-03-03T01:27:40;8.40;1.00
18670;DHT22;9464;44.918;9.670;2023-03-03T01:30:09;8.40;1.00
18670;DHT22;9464;44.918;9.670;2023-03-03T01:32:37;8.40;1.00
18670;DHT22;9464;44.918;9.670;2023-03-03T01:35:06;8.40;1.00
18670;DHT22;9464;44.918;9.670;2023-03-03T01:37:36;8.40;1.00
18670;DHT22;9464;44.918;9.670;2023-03-03T01:40:06;8.40;1.00
18670;DHT22;9464;44.918;9.670;2023-03-03T01:42:35;8.40;1.00
18670;DHT22;9464;44.918;9.670;2023-03-03T01:45:19;8.40;1.00
18670;DHT22;9464;44.918;9.670;2023-03-03T01:47:53;8.50;1.00
18670;DHT22;9464;44.918;9.670;2023-03-03T01:50:41;8.50;1.00
18670;DHT22;9464;44.918;9.670;2023-03-03T01:53:16;8.40;1.00
18670;DHT22;9464;44.918;9.670;2023-03-03T01:55:47;8.50;1.00
18670;DHT22;9464;44.918;9.670;2023-03-03T01:58:19;8.50;1.00
18670;DHT22;9464;44.918;9.670;2023-03-03T02:00:53;8.50;1.00
18670;DHT22;9464;44.918;9.670;2023-03-03T02:03:22;8.50;1.00
18670;DHT22;9464;44.918;9.670;2023-03-03T02:05:54;8.40;1.00
18670;DHT22;9464;44.918;9.670;2023-03-03T02:08:29;8.50;1.00
18670;DHT22;9464;44.918;9.670;2023-03-03T02:11:00;8.50;1.00
18670;DHT22;9464;44.918;9.670;2023-03-03T02:13:29;8.50;1.00
18670;DHT22;9464;44.918;9.670;2023-03-03T02:15:58;8.50;1.00
18670;DHT22;9464;44.918;9.670;2023-03-03T02:18:27;8.50;1.00
18670;DHT22;9464;44.918;9.670;2023-03-03T02:20:59;8.50;1.00
18670;DHT22;9464;44.918;9.670;2023-03-03T02:23:36;8.50;1.00
18670;DHT22;9464;44.918;9.670;2023-03-03T02:26:08;8.50;1.00
18670;DHT22;9464;44.918;9.670;2023-03-03T02:28:38;8.50;1.00
18670;DHT22;9464;44.918;9.670;2023-03-03T02:31:08;8.50;1.00
18670;DHT22;9464;44.918;9.670;2023-03-03T02:33:39;8.50;1.00
18670;DHT22;9464;44.918;9.670;2023-03-03T02:36:11;8.50;1.00
18670;DHT22;9464;44.918;9.670;2023-03-03T02:38:45;8.50;1.00
18670;DHT22;9464;44.918;9.670;2023-03-03T02:41:25;8.50;1.00
18670;DHT22;9464;44.918;9.670;2023-03-03T02:43:57;8.50;1.00
18670;DHT22;9464;44.918;9.670;2023-03-03T02:46:26;8.50;1.00
18670;DHT22;9464;44.918;9.670;2023-03-03T02:48:54;8.50;1.00
18670;DHT22;9464;44.918;9.670;2023-03-03T02:51:22;8.50;1.00
18670;DHT22;9464;44.918;9.670;2023-03-03T02:53:50;8.50;1.00
18670;DHT22;9464;44.918;9.670;2023-03-03T02:56:20;8.40;1.00
18670;DHT22;9464;44.918;9.670;2023-03-03T02:58:49;8.40;1.00
18670;DHT22;9464;44.918;9.670;2023-03-03T03:01:18;8.40;1.00
18670;DHT22;9464;44.918;9.670;2023-03-03T03:03:46;8.30;1.00
18670;DHT22;9464;44.918;9.670;2023-03-03T03:06:14;8.30;1.00
18670;DHT22;9464;44.918;9.670;2023-03-03T03:08:42;8.30;1.00
18670;DHT22;9464;44.918;9.670;2023-03-03T03:11:11;8.30;1.00
18670;DHT22;9464;44.918;9.670;2023-03-03T03:13:40;8.30;1.00
18670;DHT22;9464;44.918;9.670;2023-03-03T03:16:09;8.30;1.00
18670;DHT22;9464;44.918;9.670;2023-03-03T03:18:37;8.40;1.00
18670;DHT22;9464;44.918;9.670;2023-03-03T03:21:07;8.40;1.00
18670;DHT22;9464;44.918;9.670;2023-03-03T03:23:35;8.40;1.00
18670;DHT22;9464;44.918;9.670;2023-03-03T03:26:04;8.40;1.00
18670;DHT22;9464;44.918;9.670;2023-03-03T03:28:33;8.40;1.00
18670;DHT22;9464;44.918;9.670;2023-03-03T03:31:04;8.40;1.00
18670;DHT22;9464;44.918;9.670;2023-03-03T03:33:33;8.40;1.00
18670;DHT22;9464;44.918;9.670;2023-03-03T03:36:01;8.30;1.00
18670;DHT22;9464;44.918;9.670;2023-03-03T03:38:30;8.30;1.00
18670;DHT22;9464;44.918;9.670;2023-03-03T03:40:59;8.30;1.00
18670;DHT22;9464;44.918;9.670;2023-03-03T03:43:27;8.40;1.00
18670;DHT22;9464;44.918;9.670;2023-03-03T03:45:55;8.40;1.00
18670;DHT22;9464;44.918;9.670;2023-03-03T03:48:26;8.30;1.00
18670;DHT22;9464;44.918;9.670;2023-03-03T03:50:54;8.30;1.00
18670;DHT22;9464;44.918;9.670;2023-03-03T03:53:22;8.30;1.00
18670;DHT22;9464;44.918;9.670;2023-03-03T03:55:50;8.30;1.00
18670;DHT22;9464;44.918;9.670;2023-03-03T03:58:18;8.30;1.00
18670;DHT22;9464;44.918;9.670;2023-03-03T04:00:47;8.30;1.00
18670;DHT22;9464;44.918;9.670;2023-03-03T04:03:15;8.30;1.00
18670;DHT22;9464;44.918;9.670;2023-03-03T04:05:45;8.40;1.00
18670;DHT22;9464;44.918;9.670;2023-03-03T04:08:13;8.40;1.00
18670;DHT22;9464;44.918;9.670;2023-03-03T04:10:41;8.40;1.00
18670;DHT22;9464;44.918;9.670;2023-03-03T04:13:09;8.40;1.00
18670;DHT22;9464;44.918;9.670;2023-03-03T04:15:38;8.40;1.00
18670;DHT22;9464;44.918;9.670;2023-03-03T04:18:06;8.40;1.00
18670;DHT22;9464;44.918;9.670;2023-03-03T04:20:34;8.40;1.00
18670;DHT22;9464;44.918;9.670;2023-03-03T04:23:04;8.40;1.00
18670;DHT22;9464;44.918;9.670;2023-03-03T04:25:32;8.40;1.00
18670;DHT22;9464;44.918;9.670;2023-03-03T04:28:00;8.40;1.00
18670;DHT22;9464;44.918;9.670;2023-03-03T04:30:31;8.40;1.00
18670;DHT22;9464;44.918;9.670;2023-03-03T04:32:59;8.40;1.00
18670;DHT22;9464;44.918;9.670;2023-03-03T04:35:27;8.40;1.00
18670;DHT22;9464;44.918;9.670;2023-03-03T04:37:55;8.40;1.00
18670;DHT22;9464;44.918;9.670;2023-03-03T04:40:25;8.40;1.00
18670;DHT22;9464;44.918;9.670;2023-03-03T04:42:53;8.40;1.00
18670;DHT22;9464;44.918;9.670;2023-03-03T04:45:21;8.40;1.00
18670;DHT22;9464;44.918;9.670;2023-03-03T04:47:49;8.40;1.00
18670;DHT22;9464;44.918;9.670;2023-03-03T04:50:18;8.40;1.00
18670;DHT22;9464;44.918;9.670;2023-03-03T04:52:46;8.40;1.00
18670;DHT22;9464;44.918;9.670;2023-03-03T04:55:15;8.40;1.00
18670;DHT22;9464;44.918;9.670;2023-03-03T04:57:44;8.40;1.00
18670;DHT22;9464;44.918;9.670;2023-03-03T05:00:13;8.40;1.00
18670;DHT22;9464;44.918;9.670;2023-03-03T05:02:42;8.40;1.00
18670;DHT22;9464;44.918;9.670;2023-03-03T05:05:10;8.30;1.00
18670;DHT22;9464;44.918;9.670;2023-03-03T05:07:39;8.30;1.00
18670;DHT22;9464;44.918;9.670;2023-03-03T05:10:08;8.30;1.00
18670;DHT22;9464;44.918;9.670;2023-03-03T05:12:37;8.30;1.00
18670;DHT22;9464;44.918;9.670;2023-03-03T05:15:08;8.30;1.00
18670;DHT22;9464;44.918;9.670;2023-03-03T05:17:36;8.30;1.00
18670;DHT22;9464;44.918;9.670;2023-03-03T05:20:05;8.30;1.00
18670;DHT22;9464;44.918;9.670;2023-03-03T05:22:36;8.30;1.00
18670;DHT22;9464;44.918;9.670;2023-03-03T05:25:05;8.30;1.00
18670;DHT22;9464;44.918;9.670;2023-03-03T05:27:34;8.30;1.00
18670;DHT22;9464;44.918;9.670;2023-03-03T05:30:04;8.30;1.00
18670;DHT22;9464;44.918;9.670;2023-03-03T05:32:33;8.20;1.00
18670;DHT22;9464;44.918;9.670;2023-03-03T05:35:02;8.20;1.00
18670;DHT22;9464;44.918;9.670;2023-03-03T05:37:30;8.20;1.00
18670;DHT22;9464;44.918;9.670;2023-03-03T05:39:58;8.20;1.00
18670;DHT22;9464;44.918;9.670;2023-03-03T05:42:27;8.20;1.00
18670;DHT22;9464;44.918;9.670;2023-03-03T05:44:55;8.20;1.00
18670;DHT22;9464;44.918;9.670;2023-03-03T05:47:23;8.20;1.00
18670;DHT22;9464;44.918;9.670;2023-03-03T05:49:53;8.10;1.00
18670;DHT22;9464;44.918;9.670;2023-03-03T05:52:22;8.10;1.00
18670;DHT22;9464;44.918;9.670;2023-03-03T05:54:51;8.10;1.00
18670;DHT22;9464;44.918;9.670;2023-03-03T05:57:19;8.10;1.00
18670;DHT22;9464;44.918;9.670;2023-03-03T05:59:47;8.10;1.00
18670;DHT22;9464;44.918;9.670;2023-03-03T06:02:15;8.10;1.00
18670;DHT22;9464;44.918;9.670;2023-03-03T06:04:44;8.10;1.00
18670;DHT22;9464;44.918;9.670;2023-03-03T06:07:13;8.00;1.00
18670;DHT22;9464;44.918;9.670;2023-03-03T06:09:41;8.00;1.00
18670;DHT22;9464;44.918;9.670;2023-03-03T06:12:10;8.00;1.00
18670;DHT22;9464;44.918;9.670;2023-03-03T06:14:38;7.90;1.00
18670;DHT22;9464;44.918;9.670;2023-03-03T06:17:06;8.00;1.00
18670;DHT22;9464;44.918;9.670;2023-03-03T06:19:35;7.90;1.00
18670;DHT22;9464;44.918;9.670;2023-03-03T06:22:03;7.90;1.00
18670;DHT22;9464;44.918;9.670;2023-03-03T06:24:33;8.00;1.00
18670;DHT22;9464;44.918;9.670;2023-03-03T06:27:01;8.00;1.00
18670;DHT22;9464;44.918;9.670;2023-03-03T06:29:29;8.00;1.00
18670;DHT22;9464;44.918;9.670;2023-03-03T06:31:57;8.10;1.00
18670;DHT22;9464;44.918;9.670;2023-03-03T06:34:26;8.10;1.00
18670;DHT22;9464;44.918;9.670;2023-03-03T06:36:54;8.10;1.00
18670;DHT22;9464;44.918;9.670;2023-03-03T06:39:23;8.10;1.00
18670;DHT22;9464;44.918;9.670;2023-03-03T06:41:52;8.10;1.00
18670;DHT22;9464;44.918;9.670;2023-03-03T06:44:21;8.10;1.00
18670;DHT22;9464;44.918;9.670;2023-03-03T06:46:49;8.20;1.00
18670;DHT22;9464;44.918;9.670;2023-03-03T06:49:17;8.20;1.00
18670;DHT22;9464;44.918;9.670;2023-03-03T06:51:45;8.20;1.00
18670;DHT22;9464;44.918;9.670;2023-03-03T06:54:15;8.20;1.00
18670;DHT22;9464;44.918;9.670;2023-03-03T06:56:44;8.30;1.00
18670;DHT22;9464;44.918;9.670;2023-03-03T06:59:16;8.30;1.00
18670;DHT22;9464;44.918;9.670;2023-03-03T07:01:45;8.30;1.00
18670;DHT22;9464;44.918;9.670;2023-03-03T07:04:21;8.40;1.00
18670;DHT22;9464;44.918;9.670;2023-03-03T07:06:52;8.40;1.00
18670;DHT22;9464;44.918;9.670;2023-03-03T07:09:23;8.40;1.00
18670;DHT22;9464;44.918;9.670;2023-03-03T07:11:53;8.40;1.00
18670;DHT22;9464;44.918;9.670;2023-03-03T07:14:25;8.50;1.00
18670;DHT22;9464;44.918;9.670;2023-03-03T07:16:57;8.50;1.00
18670;DHT22;9464;44.918;9.670;2023-03-03T07:19:30;8.50;1.00
18670;DHT22;9464;44.918;9.670;2023-03-03T07:22:00;8.40;1.00
18670;DHT22;9464;44.918;9.670;2023-03-03T07:24:38;8.50;1.00
18670;DHT22;9464;44.918;9.670;2023-03-03T07:27:11;8.50;1.00
18670;DHT22;9464;44.918;9.670;2023-03-03T07:29:42;8.60;1.00
18670;DHT22;9464;44.918;9.670;2023-03-03T07:32:32;8.60;1.00
18670;DHT22;9464;44.918;9.670;2023-03-03T07:35:03;8.60;1.00
18670;DHT22;9464;44.918;9.670;2023-03-03T07:37:38;8.70;1.00
18670;DHT22;9464;44.918;9.670;2023-03-03T07:40:27;8.70;1.00
18670;DHT22;9464;44.918;9.670;2023-03-03T07:42:58;8.70;1.00
18670;DHT22;9464;44.918;9.670;2023-03-03T07:45:29;8.70;1.00
18670;DHT22;9464;44.918;9.670;2023-03-03T07:48:03;8.80;1.00
18670;DHT22;9464;44.918;9.670;2023-03-03T07:50:36;8.70;1.00
18670;DHT22;9464;44.918;9.670;2023-03-03T07:53:14;8.70;1.00
18670;DHT22;9464;44.918;9.670;2023-03-03T07:55:46;8.80;1.00
18670;DHT22;9464;44.918;9.670;2023-03-03T07:58:20;8.80;1.00
18670;DHT22;9464;44.918;9.670;2023-03-03T08:03:55;8.90;1.00
18670;DHT22;9464;44.918;9.670;2023-03-03T08:06:41;9.00;1.00
18670;DHT22;9464;44.918;9.670;2023-03-03T08:09:29;9.00;1.00
18670;DHT22;9464;44.918;9.670;2023-03-03T08:12:01;9.10;1.00
18670;DHT22;9464;44.918;9.670;2023-03-03T08:14:37;9.10;1.00
18670;DHT22;9464;44.918;9.670;2023-03-03T08:17:13;9.20;1.00
18670;DHT22;9464;44.918;9.670;2023-03-03T08:19:45;9.20;1.00
18670;DHT22;9464;44.918;9.670;2023-03-03T08:22:16;9.30;1.00
18670;DHT22;9464;44.918;9.670;2023-03-03T08:24:45;9.30;1.00
18670;DHT22;9464;44.918;9.670;2023-03-03T08:27:13;9.40;1.00
18670;DHT22;9464;44.918;9.670;2023-03-03T08:29:41;9.40;1.00
18670;DHT22;9464;44.918;9.670;2023-03-03T08:32:09;9.50;1.00
18670;DHT22;9464;44.918;9.670;2023-03-03T08:34:38;9.50;1.00
18670;DHT22;9464;44.918;9.670;2023-03-03T08:37:07;9.60;1.00
18670;DHT22;9464;44.918;9.670;2023-03-03T08:39:35;9.60;1.00
18670;DHT22;9464;44.918;9.670;2023-03-03T08:42:04;9.70;1.00
18670;DHT22;9464;44.918;9.670;2023-03-03T08:44:32;9.70;1.00
18670;DHT22;9464;44.918;9.670;2023-03-03T08:47:00;9.80;1.00
18670;DHT22;9464;44.918;9.670;2023-03-03T08:49:28;9.80;1.00
18670;DHT22;9464;44.918;9.670;2023-03-03T08:51:56;9.90;1.00
18670;DHT22;9464;44.918;9.670;2023-03-03T08:54:27;9.90;1.00
18670;DHT22;9464;44.918;9.670;2023-03-03T08:56:56;10.00;1.00
18670;DHT22;9464;44.918;9.670;2023-03-03T08:59:24;10.00;1.00
18670;DHT22;9464;44.918;9.670;2023-03-03T09:01:52;10.10;1.00
18670;DHT22;9464;44.918;9.670;2023-03-03T09:04:20;10.10;1.00
18670;DHT22;9464;44.918;9.670;2023-03-03T09:06:49;10.10;1.00
18670;DHT22;9464;44.918;9.670;2023-03-03T09:09:17;10.20;1.00
18670;DHT22;9464;44.918;9.670;2023-03-03T09:11:46;10.20;1.00
18670;DHT22;9464;44.918;9.670;2023-03-03T09:14:16;10.30;1.00
18670;DHT22;9464;44.918;9.670;2023-03-03T09:16:50;10.30;1.00
18670;DHT22;9464;44.918;9.670;2023-03-03T09:19:23;10.30;1.00
18670;DHT22;9464;44.918;9.670;2023-03-03T09:21:53;10.30;1.00
18670;DHT22;9464;44.918;9.670;2023-03-03T09:24:25;10.40;1.00
18670;DHT22;9464;44.918;9.670;2023-03-03T09:26:55;10.40;1.00
18670;DHT22;9464;44.918;9.670;2023-03-03T09:29:26;10.50;1.00
18670;DHT22;9464;44.918;9.670;2023-03-03T09:31:56;10.60;1.00
18670;DHT22;9464;44.918;9.670;2023-03-03T09:34:36;10.60;1.00
18670;DHT22;9464;44.918;9.670;2023-03-03T09:37:17;10.60;1.00
18670;DHT22;9464;44.918;9.670;2023-03-03T09:39:49;10.70;1.00
18670;DHT22;9464;44.918;9.670;2023-03-03T09:42:35;10.70;1.00
18670;DHT22;9464;44.918;9.670;2023-03-03T09:48:24;10.80;1.00
18670;DHT22;9464;44.918;9.670;2023-03-03T09:51:12;10.80;1.00
18670;DHT22;9464;44.918;9.670;2023-03-03T09:54:01;10.80;1.00
18670;DHT22;9464;44.918;9.670;2023-03-03T09:56:33;10.80;1.00
18670;DHT22;9464;44.918;9.670;2023-03-03T09:59:14;10.80;1.00
18670;DHT22;9464;44.918;9.670;2023-03-03T10:02:03;10.80;1.00
18670;DHT22;9464;44.918;9.670;2023-03-03T10:05:04;10.80;1.00
18670;DHT22;9464;44.918;9.670;2023-03-03T10:07:48;10.90;1.00
18670;DHT22;9464;44.918;9.670;2023-03-03T10:10:44;10.90;1.00
18670;DHT22;9464;44.918;9.670;2023-03-03T10:16:32;11.00;1.00
18670;DHT22;9464;44.918;9.670;2023-03-03T10:19:11;11.10;1.00
18670;DHT22;9464;44.918;9.670;2023-03-03T10:21:47;11.10;1.00
18670;DHT22;9464;44.918;9.670;2023-03-03T10:24:26;11.20;1.00
18670;DHT22;9464;44.918;9.670;2023-03-03T10:27:06;11.20;1.00
18670;DHT22;9464;44.918;9.670;2023-03-03T10:29:47;11.20;1.00
18670;DHT22;9464;44.918;9.670;2023-03-03T10:32:35;11.20;1.00
18670;DHT22;9464;44.918;9.670;2023-03-03T10:35:44;11.30;1.00
18670;DHT22;9464;44.918;9.670;2023-03-03T10:38:40;11.30;1.00
18670;DHT22;9464;44.918;9.670;2023-03-03T10:41:37;11.30;1.00
18670;DHT22;9464;44.918;9.670;2023-03-03T10:44:22;11.40;1.00
18670;DHT22;9464;44.918;9.670;2023-03-03T10:47:03;11.40;1.00
18670;DHT22;9464;44.918;9.670;2023-03-03T10:49:44;11.40;1.00
18670;DHT22;9464;44.918;9.670;2023-03-03T10:52:26;11.50;1.00
18670;DHT22;9464;44.918;9.670;2023-03-03T10:58:25;11.60;1.00
18670;DHT22;9464;44.918;9.670;2023-03-03T11:01:03;11.70;1.00
18670;DHT22;9464;44.918;9.670;2023-03-03T11:06:39;11.70;1.00
18670;DHT22;9464;44.918;9.670;2023-03-03T11:09:19;11.70;1.00
18670;DHT22;9464;44.918;9.670;2023-03-03T11:11:54;11.70;1.00
18670;DHT22;9464;44.918;9.670;2023-03-03T11:14:32;11.70;1.00
18670;DHT22;9464;44.918;9.670;2023-03-03T11:17:06;11.70;1.00
18670;DHT22;9464;44.918;9.670;2023-03-03T11:19:51;11.70;1.00
18670;DHT22;9464;44.918;9.670;2023-03-03T11:22:45;11.70;1.00
18670;DHT22;9464;44.918;9.670;2023-03-03T11:25:20;11.70;1.00
18670;DHT22;9464;44.918;9.670;2023-03-03T11:28:11;11.70;1.00
18670;DHT22;9464;44.918;9.670;2023-03-03T11:30:54;11.70;1.00
18670;DHT22;9464;44.918;9.670;2023-03-03T11:33:33;11.70;1.00
18670;DHT22;9464;44.918;9.670;2023-03-03T11:36:10;11.70;1.00
18670;DHT22;9464;44.918;9.670;2023-03-03T11:38:50;11.80;1.00
18670;DHT22;9464;44.918;9.670;2023-03-03T11:41:32;11.80;1.00
18670;DHT22;9464;44.918;9.670;2023-03-03T11:44:16;11.80;1.00
18670;DHT22;9464;44.918;9.670;2023-03-03T11:46:48;11.80;1.00
18670;DHT22;9464;44.918;9.670;2023-03-03T11:49:22;11.80;1.00
18670;DHT22;9464;44.918;9.670;2023-03-03T11:51:59;11.80;1.00
18670;DHT22;9464;44.918;9.670;2023-03-03T11:54:36;11.80;1.00
18670;DHT22;9464;44.918;9.670;2023-03-03T11:57:16;11.80;1.00
18670;DHT22;9464;44.918;9.670;2023-03-03T12:00:08;11.80;1.00
18670;DHT22;9464;44.918;9.670;2023-03-03T12:03:13;11.80;1.00
18670;DHT22;9464;44.918;9.670;2023-03-03T12:05:49;11.80;1.00
18670;DHT22;9464;44.918;9.670;2023-03-03T12:08:37;11.80;1.00
18670;DHT22;9464;44.918;9.670;2023-03-03T12:11:14;11.80;1.00
18670;DHT22;9464;44.918;9.670;2023-03-03T12:13:52;11.80;1.00
18670;DHT22;9464;44.918;9.670;2023-03-03T12:16:37;11.80;1.00
18670;DHT22;9464;44.918;9.670;2023-03-03T12:19:16;11.80;1.00
18670;DHT22;9464;44.918;9.670;2023-03-03T12:22:09;11.90;1.00
18670;DHT22;9464;44.918;9.670;2023-03-03T12:24:59;11.90;1.00
18670;DHT22;9464;44.918;9.670;2023-03-03T12:27:36;11.90;1.00
18670;DHT22;9464;44.918;9.670;2023-03-03T12:30:14;11.90;1.00
18670;DHT22;9464;44.918;9.670;2023-03-03T12:32:57;11.90;1.00
18670;DHT22;9464;44.918;9.670;2023-03-03T12:35:32;11.90;1.00
18670;DHT22;9464;44.918;9.670;2023-03-03T12:38:07;11.90;1.00
18670;DHT22;9464;44.918;9.670;2023-03-03T12:40:41;12.00;1.00
18670;DHT22;9464;44.918;9.670;2023-03-03T12:43:31;12.00;1.00
18670;DHT22;9464;44.918;9.670;2023-03-03T12:46:05;12.10;1.00
18670;DHT22;9464;44.918;9.670;2023-03-03T12:48:39;12.00;1.00
18670;DHT22;9464;44.918;9.670;2023-03-03T12:51:17;12.00;1.00
18670;DHT22;9464;44.918;9.670;2023-03-03T12:54:07;12.00;1.00
18670;DHT22;9464;44.918;9.670;2023-03-03T12:56:40;12.00;1.00
18670;DHT22;9464;44.918;9.670;2023-03-03T12:59:16;12.00;1.00
18670;DHT22;9464;44.918;9.670;2023-03-03T13:02:00;12.10;1.00
18670;DHT22;9464;44.918;9.670;2023-03-03T13:04:34;12.10;1.00
18670;DHT22;9464;44.918;9.670;2023-03-03T13:07:07;12.10;1.00
18670;DHT22;9464;44.918;9.670;2023-03-03T13:09:46;12.10;1.00
18670;DHT22;9464;44.918;9.670;2023-03-03T13:12:29;12.20;1.00
18670;DHT22;9464;44.918;9.670;2023-03-03T13:15:06;12.20;1.00
18670;DHT22;9464;44.918;9.670;2023-03-03T13:17:48;12.20;1.00
18670;DHT22;9464;44.918;9.670;2023-03-03T13:20:24;12.20;1.00
18670;DHT22;9464;44.918;9.670;2023-03-03T13:22:58;12.30;1.00
18670;DHT22;9464;44.918;9.670;2023-03-03T13:25:44;12.30;1.00
18670;DHT22;9464;44.918;9.670;2023-03-03T13:28:20;12.30;1.00
18670;DHT22;9464;44.918;9.670;2023-03-03T13:30:56;12.30;1.00
18670;DHT22;9464;44.918;9.670;2023-03-03T13:33:29;12.30;1.00
18670;DHT22;9464;44.918;9.670;2023-03-03T13:36:02;12.30;1.00
18670;DHT22;9464;44.918;9.670;2023-03-03T13:38:35;12.30;1.00
18670;DHT22;9464;44.918;9.670;2023-03-03T13:41:09;12.30;1.00
18670;DHT22;9464;44.918;9.670;2023-03-03T13:43:46;12.30;1.00
18670;DHT22;9464;44.918;9.670;2023-03-03T13:46:29;12.30;1.00
18670;DHT22;9464;44.918;9.670;2023-03-03T13:49:30;12.40;1.00
18670;DHT22;9464;44.918;9.670;2023-03-03T13:52:02;12.40;1.00
18670;DHT22;9464;44.918;9.670;2023-03-03T13:54:52;12.40;1.00
18670;DHT22;9464;44.918;9.670;2023-03-03T13:57:44;12.40;1.00
18670;DHT22;9464;44.918;9.670;2023-03-03T14:00:29;12.40;1.00
18670;DHT22;9464;44.918;9.670;2023-03-03T14:03:36;12.30;1.00
18670;DHT22;9464;44.918;9.670;2023-03-03T14:06:13;12.40;1.00
18670;DHT22;9464;44.918;9.670;2023-03-03T14:09:03;12.40;1.00
18670;DHT22;9464;44.918;9.670;2023-03-03T14:11:40;12.40;1.00
18670;DHT22;9464;44.918;9.670;2023-03-03T14:14:27;12.40;1.00
18670;DHT22;9464;44.918;9.670;2023-03-03T14:17:03;12.40;1.00
18670;DHT22;9464;44.918;9.670;2023-03-03T14:19:39;12.50;1.00
18670;DHT22;9464;44.918;9.670;2023-03-03T14:22:16;12.50;1.00
18670;DHT22;9464;44.918;9.670;2023-03-03T14:24:59;12.40;1.00
18670;DHT22;9464;44.918;9.670;2023-03-03T14:27:35;12.50;1.00
18670;DHT22;9464;44.918;9.670;2023-03-03T14:30:29;12.50;1.00
18670;DHT22;9464;44.918;9.670;2023-03-03T14:33:13;12.50;1.00
18670;DHT22;9464;44.918;9.670;2023-03-03T14:35:50;12.50;1.00
18670;DHT22;9464;44.918;9.670;2023-03-03T14:38:20;12.50;1.00
18670;DHT22;9464;44.918;9.670;2023-03-03T14:41:03;12.60;1.00
18670;DHT22;9464;44.918;9.670;2023-03-03T14:43:35;12.60;1.00
18670;DHT22;9464;44.918;9.670;2023-03-03T14:49:15;12.60;1.00
18670;DHT22;9464;44.918;9.670;2023-03-03T14:52:01;12.60;1.00
18670;DHT22;9464;44.918;9.670;2023-03-03T14:54:36;12.60;1.00
18670;DHT22;9464;44.918;9.670;2023-03-03T14:57:10;12.50;1.00
18670;DHT22;9464;44.918;9.670;2023-03-03T14:59:39;12.50;1.00
18670;DHT22;9464;44.918;9.670;2023-03-03T15:02:30;12.50;1.00
18670;DHT22;9464;44.918;9.670;2023-03-03T15:05:18;12.50;1.00
18670;DHT22;9464;44.918;9.670;2023-03-03T15:07:51;12.60;1.00
18670;DHT22;9464;44.918;9.670;2023-03-03T15:10:32;12.50;1.00
18670;DHT22;9464;44.918;9.670;2023-03-03T15:13:27;12.50;1.00
18670;DHT22;9464;44.918;9.670;2023-03-03T15:16:10;12.50;1.00
18670;DHT22;9464;44.918;9.670;2023-03-03T15:19:07;12.50;1.00
18670;DHT22;9464;44.918;9.670;2023-03-03T15:21:41;12.50;1.00
18670;DHT22;9464;44.918;9.670;2023-03-03T15:24:21;12.50;1.00
18670;DHT22;9464;44.918;9.670;2023-03-03T15:26:55;12.50;1.00
18670;DHT22;9464;44.918;9.670;2023-03-03T15:29:30;12.50;1.00
18670;DHT22;9464;44.918;9.670;2023-03-03T15:32:03;12.40;1.00
18670;DHT22;9464;44.918;9.670;2023-03-03T15:34:39;12.40;1.00
18670;DHT22;9464;44.918;9.670;2023-03-03T15:37:25;12.30;1.00
18670;DHT22;9464;44.918;9.670;2023-03-03T15:40:00;12.40;1.00
18670;DHT22;9464;44.918;9.670;2023-03-03T15:42:35;12.30;1.00
18670;DHT22;9464;44.918;9.670;2023-03-03T15:45:12;12.20;1.00
18670;DHT22;9464;44.918;9.670;2023-03-03T15:47:57;12.30;1.00
18670;DHT22;9464;44.918;9.670;2023-03-03T15:50:43;12.30;1.00
18670;DHT22;9464;44.918;9.670;2023-03-03T15:53:24;12.30;1.00
18670;DHT22;9464;44.918;9.670;2023-03-03T15:56:04;12.20;1.00
18670;DHT22;9464;44.918;9.670;2023-03-03T15:59:18;12.20;1.00
18670;DHT22;9464;44.918;9.670;2023-03-03T16:01:54;12.20;1.00
18670;DHT22;9464;44.918;9.670;2023-03-03T16:04:28;12.10;1.00
18670;DHT22;9464;44.918;9.670;2023-03-03T16:07:03;12.10;1.00
18670;DHT22;9464;44.918;9.670;2023-03-03T16:09:44;12.10;1.00
18670;DHT22;9464;44.918;9.670;2023-03-03T16:12:27;12.10;1.00
18670;DHT22;9464;44.918;9.670;2023-03-03T16:15:21;12.10;1.00
18670;DHT22;9464;44.918;9.670;2023-03-03T16:17:58;12.10;1.00
18670;DHT22;9464;44.918;9.670;2023-03-03T16:20:32;12.10;1.00
18670;DHT22;9464;44.918;9.670;2023-03-03T16:23:24;12.00;1.00
18670;DHT22;9464;44.918;9.670;2023-03-03T16:26:04;12.00;1.00
18670;DHT22;9464;44.918;9.670;2023-03-03T16:28:45;12.00;1.00
18670;DHT22;9464;44.918;9.670;2023-03-03T16:31:21;11.90;1.00
18670;DHT22;9464;44.918;9.670;2023-03-03T16:33:55;11.90;1.00
18670;DHT22;9464;44.918;9.670;2023-03-03T16:36:31;11.90;1.00
18670;DHT22;9464;44.918;9.670;2023-03-03T16:39:06;11.90;1.00
18670;DHT22;9464;44.918;9.670;2023-03-03T16:41:48;11.80;1.00
18670;DHT22;9464;44.918;9.670;2023-03-03T16:44:32;11.80;1.00
18670;DHT22;9464;44.918;9.670;2023-03-03T16:47:11;11.80;1.00
18670;DHT22;9464;44.918;9.670;2023-03-03T16:49:47;11.80;1.00
18670;DHT22;9464;44.918;9.670;2023-03-03T16:52:23;11.80;1.00
18670;DHT22;9464;44.918;9.670;2023-03-03T16:54:55;11.80;1.00
18670;DHT22;9464;44.918;9.670;2023-03-03T16:57:28;11.70;1.00
18670;DHT22;9464;44.918;9.670;2023-03-03T17:00:05;11.70;1.00
18670;DHT22;9464;44.918;9.670;2023-03-03T17:03:02;11.60;1.00
18670;DHT22;9464;44.918;9.670;2023-03-03T17:05:41;11.60;1.00
18670;DHT22;9464;44.918;9.670;2023-03-03T17:08:22;11.50;1.00
18670;DHT22;9464;44.918;9.670;2023-03-03T17:10:59;11.50;1.00
18670;DHT22;9464;44.918;9.670;2023-03-03T17:16:50;11.50;1.00
18670;DHT22;9464;44.918;9.670;2023-03-03T17:19:35;11.40;1.00
18670;DHT22;9464;44.918;9.670;2023-03-03T17:22:14;11.40;1.00